Time;durP1;ratioP1;P1;durP2;ratioP2;P2;SDS_P1;SDS_P2;PMS_P1;PMS_P2;Temp;Humidity;BMP_temperature;BMP_pressure;BME280_temperature;BME280_humidity;BME280_pressure;Samples;Min_cycle;Max_cycle;Signal;HPM_P1;HPM_P2
2021/01/14 00:01:33;;;;;;;19.65;11.88;;;;;;;-3.75;81.32;99589.61;1735861;82;20975;-33
2021/01/14 00:04:01;;;;;;;14.28;9.73;;;;;;;-3.75;81.29;99587.08;1736423;81;21506;-33
2021/01/14 00:06:30;;;;;;;18.23;10.60;;;;;;;-3.76;81.12;99592.13;1735950;81;20999;-31
2021/01/14 00:08:58;;;;;;;17.80;10.95;;;;;;;-3.79;81.11;99595.41;1735976;82;22152;-32
2021/01/14 00:11:26;;;;;;;17.80;9.90;;;;;;;-3.81;81.07;99596.18;1735803;82;20992;-32
2021/01/14 00:13:54;;;;;;;18.55;11.05;;;;;;;-3.84;81.01;99602.03;1735941;82;20980;-32
2021/01/14 00:16:22;;;;;;;20.40;11.78;;;;;;;-3.85;80.88;99605.77;1735870;82;20999;-31
2021/01/14 00:18:49;;;;;;;20.25;12.03;;;;;;;-3.86;80.88;99597.73;1735890;82;21031;-33
2021/01/14 00:21:17;;;;;;;17.30;11.57;;;;;;;-3.85;80.95;99595.27;1735872;82;21696;-32
2021/01/14 00:23:45;;;;;;;17.98;11.33;;;;;;;-3.84;80.93;99598.23;1735837;82;20944;-31
2021/01/14 00:26:13;;;;;;;20.68;11.97;;;;;;;-3.81;80.86;99603.38;1735878;82;21009;-32
2021/01/14 00:28:41;;;;;;;19.45;10.95;;;;;;;-3.80;80.78;99615.59;1735784;81;21012;-31
2021/01/14 00:31:09;;;;;;;30.65;10.63;;;;;;;-3.83;80.77;99606.67;1735935;81;20964;-31
2021/01/14 00:33:36;;;;;;;22.95;10.65;;;;;;;-3.84;80.67;99610.89;1735958;82;21214;-31
2021/01/14 00:36:07;;;;;;;23.00;11.00;;;;;;;-3.85;80.59;99615.50;1735758;82;21003;-33
2021/01/14 00:38:35;;;;;;;21.40;11.63;;;;;;;-3.85;80.69;99612.97;1736016;82;21019;-33
2021/01/14 00:41:03;;;;;;;17.75;10.95;;;;;;;-3.82;80.72;99607.98;1735931;82;21268;-33
2021/01/14 00:43:31;;;;;;;20.45;11.35;;;;;;;-3.77;80.58;99607.69;1735855;82;20960;-33
2021/01/14 00:45:59;;;;;;;19.02;10.72;;;;;;;-3.76;80.48;99609.41;1735891;82;21382;-33
2021/01/14 00:48:27;;;;;;;19.32;11.53;;;;;;;-3.72;80.47;99603.16;1735888;81;20936;-33
2021/01/14 00:50:55;;;;;;;18.98;10.98;;;;;;;-3.72;80.39;99611.61;1735880;82;20889;-33
2021/01/14 00:53:23;;;;;;;19.00;11.18;;;;;;;-3.72;80.39;99605.69;1735833;81;21015;-33
2021/01/14 00:55:52;;;;;;;21.52;12.33;;;;;;;-3.71;80.34;99606.13;1735896;82;21550;-32
2021/01/14 00:58:21;;;;;;;15.58;11.15;;;;;;;-3.73;80.31;99595.12;1735864;82;22226;-32
2021/01/14 01:00:49;;;;;;;19.92;11.40;;;;;;;-3.75;80.45;99594.67;1735814;82;21094;-32
2021/01/14 01:03:17;;;;;;;15.55;10.75;;;;;;;-3.72;80.31;99594.30;1736355;81;21035;-33
2021/01/14 01:05:45;;;;;;;17.48;11.43;;;;;;;-3.72;80.19;99596.83;1749862;82;20948;-32
2021/01/14 01:08:14;;;;;;;19.98;11.80;;;;;;;-3.73;80.27;99603.97;1749862;82;21002;-32
2021/01/14 01:10:42;;;;;;;17.87;11.18;;;;;;;-3.75;80.29;99597.20;1749806;82;21380;-31
2021/01/14 01:13:09;;;;;;;17.92;10.80;;;;;;;-3.76;80.09;99601.81;1749784;82;21377;-32
2021/01/14 01:15:38;;;;;;;17.70;11.40;;;;;;;-3.77;80.07;99603.90;1749914;82;20943;-32
2021/01/14 01:18:06;;;;;;;18.90;11.55;;;;;;;-3.81;80.04;99605.91;1749796;82;20935;-32
2021/01/14 01:20:34;;;;;;;18.50;11.48;;;;;;;-3.83;80.12;99599.95;1749962;82;21040;-32
2021/01/14 01:23:02;;;;;;;17.95;11.30;;;;;;;-3.85;80.22;99606.64;1749817;82;21267;-32
2021/01/14 01:25:30;;;;;;;17.23;11.28;;;;;;;-3.85;80.32;99608.30;1749833;82;20975;-31
2021/01/14 01:27:58;;;;;;;43.00;12.70;;;;;;;-3.85;80.42;99604.51;1749809;82;21031;-32
2021/01/14 01:30:26;;;;;;;161.52;20.77;;;;;;;-3.86;80.50;99609.98;1749833;82;21055;-32
2021/01/14 01:32:54;;;;;;;88.50;15.05;;;;;;;-3.84;80.57;99615.95;1749869;81;21003;-33
2021/01/14 01:35:22;;;;;;;79.12;14.53;;;;;;;-3.83;80.66;99620.19;1749780;82;21206;-33
2021/01/14 01:37:51;;;;;;;57.98;12.15;;;;;;;-3.83;80.63;99620.58;1749848;82;21191;-33
2021/01/14 01:40:19;;;;;;;39.18;11.00;;;;;;;-3.83;80.68;99622.72;1749817;82;20888;-33
2021/01/14 01:42:55;;;;;;;12.78;9.35;;;;;;;-3.86;80.77;99622.64;1749833;82;20885;-32
2021/01/14 01:45:24;;;;;;;14.33;9.93;;;;;;;-3.89;80.66;99626.35;1749752;82;20991;-32
2021/01/14 01:47:52;;;;;;;15.80;9.33;;;;;;;-3.92;80.65;99622.05;1749859;82;21200;-32
2021/01/14 01:50:20;;;;;;;11.93;8.33;;;;;;;-3.91;80.70;99625.45;1749741;82;20931;-32
2021/01/14 01:52:49;;;;;;;12.07;9.13;;;;;;;-3.92;80.69;99628.77;1749862;82;20915;-33
2021/01/14 01:55:16;;;;;;;13.00;8.50;;;;;;;-3.94;80.72;99622.81;1749779;82;20872;-31
2021/01/14 01:57:44;;;;;;;16.27;9.73;;;;;;;-3.95;80.75;99630.83;1749913;82;21055;-32
2021/01/14 02:00:13;;;;;;;12.60;9.50;;;;;;;-3.96;80.84;99631.64;1749888;82;21197;-33
2021/01/14 02:02:41;;;;;;;18.40;10.40;;;;;;;-3.96;80.85;99635.83;1749741;82;21489;-31
2021/01/14 02:05:12;;;;;;;14.93;8.95;;;;;;;-3.97;80.88;99630.33;1749726;81;21026;-32
2021/01/14 02:08:05;;;;;;;14.65;8.85;;;;;;;-3.97;80.97;99628.67;1749802;82;20884;-31
2021/01/14 02:10:55;;;;;;;16.77;10.95;;;;;;;-3.97;81.02;99624.88;1737826;82;21011;-32
2021/01/14 02:14:04;;;;;;;12.88;9.40;;;;;;;-3.98;81.12;99620.63;1749771;82;21375;-32
2021/01/14 02:16:32;;;;;;;13.90;9.28;;;;;;;-3.99;81.10;99622.72;1749781;82;20944;-32
2021/01/14 02:19:00;;;;;;;17.00;10.03;;;;;;;-4.01;81.24;99623.48;1749831;82;21066;-33
2021/01/14 02:21:28;;;;;;;12.88;9.63;;;;;;;-4.00;81.27;99622.66;1749810;82;20888;-33
2021/01/14 02:24:15;;;;;;;12.15;9.43;;;;;;;-4.01;81.36;99614.63;1676157;82;20907;-32
2021/01/14 02:26:43;;;;;;;17.95;11.35;;;;;;;-4.01;81.64;99613.36;1749987;82;21389;-33
2021/01/14 02:29:12;;;;;;;19.52;11.45;;;;;;;-4.04;81.89;99601.09;1750050;82;21118;-32
2021/01/14 02:31:40;;;;;;;24.82;11.38;;;;;;;-4.04;82.15;99598.55;1749932;82;20916;-32
2021/01/14 02:34:08;;;;;;;19.92;11.43;;;;;;;-4.02;82.20;99599.00;1722682;82;21085;-33
2021/01/14 02:36:36;;;;;;;19.65;11.75;;;;;;;-4.05;82.36;99600.64;1750059;82;20876;-31
2021/01/14 02:39:05;;;;;;;19.67;11.05;;;;;;;-4.05;82.44;99606.95;1749946;82;21440;-32
2021/01/14 02:41:33;;;;;;;20.25;12.23;;;;;;;-4.06;82.42;99606.91;1749953;82;20955;-31
2021/01/14 02:44:01;;;;;;;17.82;11.88;;;;;;;-4.06;82.45;99612.83;1749947;82;20999;-33
2021/01/14 02:46:29;;;;;;;21.85;12.68;;;;;;;-4.06;82.44;99606.52;1750009;82;21043;-33
2021/01/14 02:49:07;;;;;;;19.77;11.68;;;;;;;-4.02;82.49;99616.70;1722650;82;20912;-32
2021/01/14 02:51:50;;;;;;;20.37;11.15;;;;;;;-4.04;82.45;99612.89;1750035;82;21196;-32
2021/01/14 02:54:17;;;;;;;17.40;11.18;;;;;;;-4.04;82.49;99613.73;1749856;82;20978;-33
2021/01/14 02:56:50;;;;;;;21.33;12.53;;;;;;;-4.02;82.54;99614.17;1722572;82;20955;-33
2021/01/14 02:59:18;;;;;;;23.57;13.85;;;;;;;-4.06;82.41;99617.89;1750034;82;21047;-32
2021/01/14 03:01:46;;;;;;;16.87;11.50;;;;;;;-4.06;82.41;99622.95;1750036;82;20919;-32
2021/01/14 03:04:14;;;;;;;18.32;11.95;;;;;;;-4.05;82.42;99630.98;1720069;82;21152;-32
2021/01/14 03:06:41;;;;;;;21.80;13.55;;;;;;;-4.07;82.43;99631.73;1735921;82;21068;-32
2021/01/14 03:09:10;;;;;;;18.80;12.63;;;;;;;-4.09;82.48;99627.92;1735928;82;20984;-32
2021/01/14 03:11:39;;;;;;;22.00;13.08;;;;;;;-4.08;82.52;99638.48;1735955;82;20881;-33
2021/01/14 03:14:07;;;;;;;20.95;13.88;;;;;;;-4.09;82.59;99635.51;1735976;82;20996;-32
2021/01/14 03:16:38;;;;;;;21.05;13.05;;;;;;;-4.09;82.62;99634.24;1736027;82;22284;-32
2021/01/14 03:19:06;;;;;;;21.42;12.53;;;;;;;-4.08;82.70;99633.42;1735874;82;20928;-33
2021/01/14 03:21:34;;;;;;;27.42;16.42;;;;;;;-4.09;82.79;99637.16;1736030;82;21035;-32
2021/01/14 03:24:03;;;;;;;28.67;14.95;;;;;;;-4.07;82.82;99637.67;1735878;82;20996;-32
2021/01/14 03:26:34;;;;;;;27.17;15.25;;;;;;;-4.08;83.02;99642.27;1736078;82;21027;-32
2021/01/14 03:29:02;;;;;;;37.40;16.35;;;;;;;-4.07;83.01;99636.41;1715992;82;21199;-32
2021/01/14 03:31:31;;;;;;;27.07;15.58;;;;;;;-4.06;83.04;99636.85;1735862;82;20987;-33
2021/01/14 03:33:59;;;;;;;26.02;16.07;;;;;;;-4.06;83.10;99639.77;1735901;82;21044;-33
2021/01/14 03:36:32;;;;;;;28.00;15.45;;;;;;;-4.05;83.17;99647.41;1735889;82;20936;-32
2021/01/14 03:38:56;;;;;;;30.10;16.67;;;;;;;-4.05;83.24;99647.41;1735766;82;20984;-33
2021/01/14 03:41:24;;;;;;;30.35;17.15;;;;;;;-4.06;83.32;99644.44;1735933;82;21364;-33
2021/01/14 03:43:52;;;;;;;34.43;17.23;;;;;;;-4.05;83.32;99642.36;1735835;82;20960;-31
2021/01/14 03:46:20;;;;;;;29.45;15.45;;;;;;;-4.06;83.36;99643.17;1735887;82;21066;-32
2021/01/14 03:48:49;;;;;;;35.78;19.82;;;;;;;-4.06;83.49;99648.23;1736039;81;20941;-31
2021/01/14 03:51:22;;;;;;;30.88;17.80;;;;;;;-4.04;83.48;99654.19;1735974;82;20913;-32
2021/01/14 03:53:51;;;;;;;34.18;19.80;;;;;;;-4.04;83.62;99655.45;1735930;82;21440;-32
2021/01/14 03:56:19;;;;;;;35.08;19.80;;;;;;;-4.02;83.67;99663.48;1735851;82;21545;-32
2021/01/14 03:58:47;;;;;;;35.55;19.60;;;;;;;-4.01;83.72;99657.61;1735985;82;21055;-32
2021/01/14 04:01:15;;;;;;;39.75;21.73;;;;;;;-4.00;83.75;99665.64;1735861;81;20912;-32
2021/01/14 04:03:43;;;;;;;42.83;22.65;;;;;;;-3.99;83.86;99668.63;1735844;81;20964;-32
2021/01/14 04:06:11;;;;;;;41.75;22.62;;;;;;;-3.99;83.89;99666.09;1735921;81;21510;-33
2021/01/14 04:08:40;;;;;;;43.95;23.12;;;;;;;-3.98;83.93;99666.55;1735890;82;20940;-32
2021/01/14 04:11:11;;;;;;;45.67;23.32;;;;;;;-3.96;84.04;99662.38;1735887;82;20944;-31
2021/01/14 04:13:41;;;;;;;46.85;24.90;;;;;;;-3.96;84.09;99657.33;1735899;82;20972;-31
2021/01/14 04:16:12;;;;;;;45.73;25.20;;;;;;;-3.96;84.04;99656.06;1735914;82;20888;-32
2021/01/14 04:18:41;;;;;;;46.60;24.60;;;;;;;-3.95;84.11;99656.52;1735874;82;21173;-33
2021/01/14 04:21:13;;;;;;;48.80;24.60;;;;;;;-3.97;84.12;99653.95;1735921;82;21035;-31
2021/01/14 04:23:42;;;;;;;50.65;27.45;;;;;;;-3.98;84.14;99655.16;1735884;82;21023;-32
2021/01/14 04:26:12;;;;;;;50.70;27.87;;;;;;;-4.01;84.08;99651.29;1715640;82;21438;-32
2021/01/14 04:28:40;;;;;;;50.73;28.95;;;;;;;-4.09;83.91;99654.47;1735865;82;20873;-32
2021/01/14 04:31:12;;;;;;;54.25;28.10;;;;;;;-4.20;83.83;99649.50;1736066;82;21494;-32
2021/01/14 04:33:41;;;;;;;51.55;24.98;;;;;;;-4.35;83.86;99662.16;1734034;82;21502;-32
2021/01/14 04:36:10;;;;;;;54.30;29.30;;;;;;;-4.50;84.14;99664.22;1735732;82;21316;-32
2021/01/14 04:38:39;;;;;;;58.28;30.23;;;;;;;-4.59;84.37;99666.06;1735900;82;20988;-32
2021/01/14 04:41:07;;;;;;;55.60;28.47;;;;;;;-4.68;84.43;99663.27;1735927;82;20940;-32
2021/01/14 04:43:35;;;;;;;50.92;26.57;;;;;;;-4.79;84.56;99670.51;1735808;82;21365;-32
2021/01/14 04:46:08;;;;;;;59.42;31.40;;;;;;;-4.89;84.74;99665.57;1735897;82;21106;-32
2021/01/14 04:48:41;;;;;;;98.55;31.35;;;;;;;-4.96;84.89;99663.25;1735937;82;20940;-33
2021/01/14 04:51:19;;;;;;;143.35;33.78;;;;;;;-5.04;84.96;99659.63;1735870;81;20916;-32
2021/01/14 04:53:50;;;;;;;93.03;31.05;;;;;;;-5.12;85.21;99656.86;1736005;82;21066;-32
2021/01/14 04:56:19;;;;;;;146.28;33.25;;;;;;;-5.16;85.57;99657.57;1735898;82;21197;-31
2021/01/14 04:58:49;;;;;;;131.00;31.17;;;;;;;-5.20;85.71;99661.65;1735867;82;20996;-31
2021/01/14 05:01:23;;;;;;;141.57;34.75;;;;;;;-5.23;85.80;99655.66;1735834;82;20933;-30
2021/01/14 05:03:54;;;;;;;172.80;34.25;;;;;;;-5.25;85.99;99654.76;1735837;82;21035;-31
2021/01/14 05:06:23;;;;;;;237.42;36.25;;;;;;;-5.27;85.89;99651.33;1745871;81;21027;-31
2021/01/14 05:08:58;;;;;;;257.10;40.60;;;;;;;-5.35;85.79;99658.22;1749946;82;21374;-32
2021/01/14 05:11:26;;;;;;;330.43;44.77;;;;;;;-5.39;85.93;99654.30;1749777;81;21030;-32
2021/01/14 05:13:54;;;;;;;157.67;32.48;;;;;;;-5.45;85.99;99659.99;1698906;82;20991;-32
2021/01/14 05:16:21;;;;;;;115.37;32.90;;;;;;;-5.50;86.20;99658.56;1698877;82;21042;-32
2021/01/14 05:18:49;;;;;;;91.57;34.85;;;;;;;-5.49;86.46;99661.55;1749964;81;20931;-32
2021/01/14 05:21:19;;;;;;;86.17;33.28;;;;;;;-5.49;86.64;99666.59;1749724;81;20892;-31
2021/01/14 05:23:48;;;;;;;60.58;29.02;;;;;;;-5.45;86.67;99669.21;1676954;82;21522;-33
2021/01/14 05:26:29;;;;;;;57.55;29.48;;;;;;;-5.41;86.68;99678.63;1749818;82;20923;-33
2021/01/14 05:28:56;;;;;;;62.93;29.32;;;;;;;-5.38;86.74;99669.48;1747917;82;20927;-33
2021/01/14 05:31:25;;;;;;;66.15;30.72;;;;;;;-5.31;86.76;99662.98;1749963;82;20999;-32
2021/01/14 05:33:59;;;;;;;60.55;29.65;;;;;;;-5.26;86.97;99651.78;1722593;82;21224;-32
2021/01/14 05:36:27;;;;;;;70.55;31.82;;;;;;;-5.22;86.94;99654.85;1749768;81;21053;-32
2021/01/14 05:38:58;;;;;;;55.88;28.07;;;;;;;-5.21;86.91;99664.98;1749873;82;20895;-32
2021/01/14 05:41:28;;;;;;;68.72;32.75;;;;;;;-5.20;86.93;99664.17;1749896;82;21006;-33
2021/01/14 05:44:00;;;;;;;67.67;32.33;;;;;;;-5.17;87.02;99656.28;1749927;81;21407;-32
2021/01/14 05:46:31;;;;;;;62.00;31.65;;;;;;;-5.13;87.03;99657.66;1749846;82;21095;-32
2021/01/14 05:49:02;;;;;;;67.20;32.40;;;;;;;-5.09;87.02;99654.84;1739363;82;21133;-34
2021/01/14 05:51:33;;;;;;;65.12;32.03;;;;;;;-5.06;87.03;99659.57;1749936;82;20983;-33
2021/01/14 05:54:10;;;;;;;61.10;30.48;;;;;;;-4.99;87.04;99662.31;1749849;82;21038;-32
2021/01/14 05:56:49;;;;;;;67.00;31.12;;;;;;;-4.96;87.00;99658.20;1749870;82;20872;-33
2021/01/14 05:59:18;;;;;;;59.75;29.98;;;;;;;-4.89;86.94;99669.36;1749845;82;21384;-33
2021/01/14 06:01:57;;;;;;;64.45;32.65;;;;;;;-4.84;86.91;99669.52;1749769;82;21063;-33
2021/01/14 06:04:29;;;;;;;62.50;32.53;;;;;;;-4.78;86.87;99672.22;1749799;82;21018;-32
2021/01/14 06:07:07;;;;;;;61.48;31.33;;;;;;;-4.71;86.83;99669.49;1749673;82;21034;-32
2021/01/14 06:09:29;;;;;;;57.23;30.82;;;;;;;-4.67;86.75;99667.50;1746586;82;21068;-31
2021/01/14 06:12:11;;;;;;;62.23;29.82;;;;;;;-4.61;86.67;99668.95;1749864;82;21202;-33
2021/01/14 06:14:39;;;;;;;64.12;31.42;;;;;;;-4.57;86.54;99666.13;1749832;82;20951;-33
2021/01/14 06:17:11;;;;;;;60.03;29.90;;;;;;;-4.55;86.36;99665.76;1749720;82;20971;-32
2021/01/14 06:21:55;;;;;;;53.98;27.93;;;;;;;-4.47;86.23;99672.77;1777072;79;23231;-34
2021/01/14 06:24:37;;;;;;;52.33;27.67;;;;;;;-4.51;86.14;99677.67;1749776;82;20995;-31
2021/01/14 06:27:10;;;;;;;60.63;29.02;;;;;;;-4.49;85.92;99684.89;1747241;82;21220;-32
2021/01/14 06:29:40;;;;;;;64.30;32.65;;;;;;;-4.47;85.90;99687.05;1749821;81;20915;-33
2021/01/14 06:32:14;;;;;;;73.55;33.80;;;;;;;-4.45;85.90;99693.01;1749727;82;20991;-33
2021/01/14 06:34:51;;;;;;;61.05;32.93;;;;;;;-4.37;85.89;99691.98;1749772;81;20924;-32
2021/01/14 06:37:25;;;;;;;62.93;29.05;;;;;;;-4.33;85.81;99685.81;1749757;81;21015;-32
2021/01/14 06:39:58;;;;;;;54.38;27.90;;;;;;;-4.27;85.67;99683.00;1749748;82;21385;-33
2021/01/14 06:42:36;;;;;;;69.55;32.50;;;;;;;-4.22;85.56;99687.78;1749699;81;21003;-32
2021/01/14 06:45:12;;;;;;;70.28;35.25;;;;;;;-4.16;85.57;99690.52;1749747;82;20888;-33
2021/01/14 06:47:44;;;;;;;52.38;28.57;;;;;;;-4.07;85.50;99688.63;1749736;82;20952;-32
2021/01/14 06:50:26;;;;;;;65.10;32.58;;;;;;;-3.98;85.34;99688.04;1749849;82;21414;-33
2021/01/14 06:53:12;;;;;;;56.70;29.75;;;;;;;-3.90;85.10;99691.66;1749680;82;21422;-33
2021/01/14 06:55:41;;;;;;;62.13;29.92;;;;;;;-3.83;84.53;99693.93;1749756;82;21485;-35
2021/01/14 06:58:13;;;;;;;62.50;29.12;;;;;;;-3.82;84.53;99696.91;1720564;82;21031;-33
2021/01/14 07:00:45;;;;;;;55.05;28.32;;;;;;;-3.79;84.46;99707.98;1749609;81;20986;-31
2021/01/14 07:03:20;;;;;;;52.08;26.57;;;;;;;-3.79;84.09;99711.77;1749698;82;21450;-33
2021/01/14 07:05:58;;;;;;;61.23;30.23;;;;;;;-3.73;84.06;99717.42;1749820;81;22334;-33
2021/01/14 07:08:55;;;;;;;63.92;31.42;;;;;;;-3.71;83.76;99722.51;1749666;82;20991;-33
2021/01/14 07:11:23;;;;;;;58.52;30.77;;;;;;;-3.69;83.67;99717.95;1749658;82;21031;-31
2021/01/14 07:13:53;;;;;;;58.70;28.00;;;;;;;-3.70;83.74;99722.56;1697013;82;20995;-33
2021/01/14 07:16:25;;;;;;;59.33;28.98;;;;;;;-3.65;83.59;99717.22;1749685;81;20978;-31
2021/01/14 07:18:53;;;;;;;59.77;30.17;;;;;;;-3.56;83.55;99722.06;1749732;82;21424;-32
2021/01/14 07:21:36;;;;;;;58.55;31.75;;;;;;;-3.51;83.32;99718.86;1740919;80;20987;-32
2021/01/14 07:24:26;;;;;;;57.33;29.25;;;;;;;-3.47;83.29;99716.01;1736511;81;20932;-31
2021/01/14 07:26:58;;;;;;;60.43;30.62;;;;;;;-3.39;83.12;99713.27;1736249;82;20944;-32
2021/01/14 07:29:30;;;;;;;58.00;29.87;;;;;;;-3.33;82.98;99708.78;1736495;82;21545;-32
2021/01/14 07:31:59;;;;;;;62.40;30.35;;;;;;;-3.28;82.89;99708.48;1736257;82;21195;-32
2021/01/14 07:34:42;;;;;;;65.12;31.57;;;;;;;-3.23;82.70;99716.20;1735935;82;20972;-31
2021/01/14 07:37:20;;;;;;;54.05;27.45;;;;;;;-3.22;82.66;99714.96;1735841;82;20980;-32
2021/01/14 07:39:54;;;;;;;60.45;31.17;;;;;;;-3.22;82.55;99723.83;1735939;82;21011;-33
2021/01/14 07:42:32;;;;;;;69.12;32.55;;;;;;;-3.20;82.58;99725.98;1736029;81;21043;-31
2021/01/14 07:45:09;;;;;;;59.23;29.92;;;;;;;-3.12;82.65;99724.92;1735974;82;21214;-32
2021/01/14 07:47:38;;;;;;;69.22;34.03;;;;;;;-3.05;82.54;99728.05;1715232;82;21533;-34
2021/01/14 07:50:26;;;;;;;69.10;34.83;;;;;;;-3.02;82.43;99730.23;1735951;82;20912;-34
2021/01/14 07:52:58;;;;;;;69.97;35.48;;;;;;;-2.98;82.45;99728.23;1735922;82;20921;-33
2021/01/14 07:55:36;;;;;;;73.33;37.40;;;;;;;-2.92;82.37;99731.74;1735921;82;20920;-33
2021/01/14 07:58:21;;;;;;;66.90;34.10;;;;;;;-2.88;82.38;99728.89;1736048;82;22692;-32
2021/01/14 08:01:08;;;;;;;72.60;35.65;;;;;;;-2.82;82.20;99727.77;1735774;82;21008;-32
2021/01/14 08:03:38;;;;;;;86.15;36.77;;;;;;;-2.78;82.14;99727.05;1735974;82;20908;-32
2021/01/14 08:06:35;;;;;;;73.85;36.53;;;;;;;-2.72;82.07;99730.54;1735821;82;21298;-33
2021/01/14 08:09:09;;;;;;;73.75;37.13;;;;;;;-2.66;81.96;99731.52;1717640;82;20873;-33
2021/01/14 08:11:51;;;;;;;62.75;32.38;;;;;;;-2.58;81.85;99730.44;1735938;81;21361;-35
2021/01/14 08:14:37;;;;;;;66.15;32.75;;;;;;;-2.47;81.74;99737.03;1735842;82;21002;-32
2021/01/14 08:17:27;;;;;;;73.07;33.98;;;;;;;-2.36;81.50;99733.47;1736063;82;20932;-33
2021/01/14 08:19:55;;;;;;;64.67;31.17;;;;;;;-2.28;81.12;99730.69;1735768;82;20957;-32
2021/01/14 08:22:24;;;;;;;67.08;34.15;;;;;;;-2.22;80.74;99732.11;1735909;82;21059;-33
2021/01/14 08:24:54;;;;;;;66.40;32.65;;;;;;;-2.19;80.70;99727.50;1735934;82;21256;-33
2021/01/14 08:27:36;;;;;;;62.20;30.12;;;;;;;-2.12;80.64;99729.38;1735855;82;21063;-33
2021/01/14 08:30:16;;;;;;;56.83;29.37;;;;;;;-2.05;80.38;99727.41;1736004;82;21281;-33
2021/01/14 08:33:03;;;;;;;66.42;31.00;;;;;;;-1.97;80.08;99731.38;1735867;82;20912;-32
2021/01/14 08:35:34;;;;;;;61.75;32.00;;;;;;;-1.91;79.96;99735.30;1735967;82;20944;-32
2021/01/14 08:38:13;;;;;;;67.30;31.10;;;;;;;-1.82;79.89;99733.38;1735920;81;21331;-33
2021/01/14 08:40:41;;;;;;;61.58;29.48;;;;;;;-1.76;79.49;99737.72;1735935;81;21146;-33
2021/01/14 08:43:12;;;;;;;57.85;30.30;;;;;;;-1.75;79.24;99735.63;1735857;82;20975;-32
2021/01/14 08:45:56;;;;;;;66.22;33.08;;;;;;;-1.79;79.02;99741.05;1735991;82;20999;-33
2021/01/14 08:48:30;;;;;;;53.90;28.07;;;;;;;-1.81;79.19;99745.62;1736139;82;20995;-33
2021/01/14 08:51:01;;;;;;;46.30;24.77;;;;;;;-1.78;79.33;99737.68;1735856;82;21382;-32
2021/01/14 08:53:35;;;;;;;61.50;31.60;;;;;;;-1.75;79.08;99746.62;1735875;81;21609;-33
2021/01/14 08:56:05;;;;;;;59.05;29.15;;;;;;;-1.74;79.12;99739.45;1736032;82;21470;-32
2021/01/14 08:58:46;;;;;;;58.00;27.65;;;;;;;-1.66;78.93;99736.20;1735846;81;21498;-32
2021/01/14 09:01:24;;;;;;;54.42;28.83;;;;;;;-1.62;78.66;99740.53;1735920;82;20976;-32
2021/01/14 09:03:56;;;;;;;55.98;29.95;;;;;;;-1.62;78.47;99739.27;1735808;82;22842;-32
2021/01/14 09:06:42;;;;;;;55.83;30.15;;;;;;;-1.59;78.54;99735.09;1735803;82;20944;-32
2021/01/14 09:09:10;;;;;;;65.47;30.90;;;;;;;-1.56;78.38;99738.51;1735518;82;21475;-32
2021/01/14 09:11:39;;;;;;;57.95;29.87;;;;;;;-1.55;78.33;99738.95;1733945;82;21003;-33
2021/01/14 09:14:14;;;;;;;62.33;31.12;;;;;;;-1.54;78.21;99736.85;1736003;82;21403;-33
2021/01/14 09:16:45;;;;;;;62.50;31.62;;;;;;;-1.55;78.22;99737.28;1735995;82;21205;-33
2021/01/14 09:19:17;;;;;;;61.28;32.05;;;;;;;-1.52;78.29;99735.20;1735702;82;20952;-32
2021/01/14 09:21:47;;;;;;;53.23;26.25;;;;;;;-1.46;78.34;99734.07;1743408;82;20995;-32
2021/01/14 09:24:16;;;;;;;66.65;28.87;;;;;;;-1.40;78.29;99733.30;1749838;82;20952;-33
2021/01/14 09:26:49;;;;;;;61.00;30.02;;;;;;;-1.39;78.27;99735.02;1749895;82;20912;-32
2021/01/14 09:29:19;;;;;;;72.15;31.68;;;;;;;-1.43;78.45;99730.71;1749900;82;22285;-33
2021/01/14 09:31:48;;;;;;;69.17;30.68;;;;;;;-1.47;78.56;99731.93;1749909;82;21165;-32
2021/01/14 09:34:16;;;;;;;61.05;30.50;;;;;;;-1.46;78.73;99728.98;1749788;82;21039;-33
2021/01/14 09:36:45;;;;;;;71.45;33.28;;;;;;;-1.45;78.85;99723.92;1749786;81;20916;-33
2021/01/14 09:39:16;;;;;;;64.85;31.60;;;;;;;-1.45;78.96;99726.89;1749920;82;21042;-34
2021/01/14 09:41:44;;;;;;;74.30;33.75;;;;;;;-1.40;79.05;99732.03;1749876;82;21370;-32
2021/01/14 09:44:15;;;;;;;66.87;31.70;;;;;;;-1.42;79.14;99728.61;1749752;82;21082;-32
2021/01/14 09:46:46;;;;;;;70.75;29.75;;;;;;;-1.47;79.28;99727.28;1749991;81;21011;-32
2021/01/14 09:49:19;;;;;;;72.30;34.33;;;;;;;-1.49;79.46;99729.78;1749858;82;20908;-32
2021/01/14 09:51:47;;;;;;;76.10;30.48;;;;;;;-1.48;79.70;99726.41;1749799;82;20920;-32
2021/01/14 09:54:15;;;;;;;85.67;32.67;;;;;;;-1.43;79.88;99724.37;1749928;82;21200;-32
2021/01/14 09:56:53;;;;;;;67.85;30.05;;;;;;;-1.43;79.74;99727.78;1749820;82;20892;-32
2021/01/14 09:59:42;;;;;;;77.67;33.15;;;;;;;-1.45;79.92;99724.35;1749845;82;21054;-32
2021/01/14 10:02:24;;;;;;;94.00;34.88;;;;;;;-1.41;79.97;99721.44;1749749;82;21019;-33
2021/01/14 10:05:01;;;;;;;67.70;33.18;;;;;;;-1.39;79.95;99721.05;1749893;82;20967;-32
2021/01/14 10:07:28;;;;;;;57.05;29.52;;;;;;;-1.41;79.91;99721.44;1749899;82;21373;-33
2021/01/14 10:09:58;;;;;;;73.35;32.93;;;;;;;-1.45;79.97;99715.03;1722739;82;21026;-32
2021/01/14 10:12:26;;;;;;;64.47;30.55;;;;;;;-1.44;80.07;99708.30;1722368;82;21046;-32
2021/01/14 10:15:14;;;;;;;67.42;33.40;;;;;;;-1.37;80.20;99707.56;1749843;82;20912;-33
2021/01/14 10:17:42;;;;;;;69.92;33.53;;;;;;;-1.30;80.17;99708.55;1749911;82;20928;-32
2021/01/14 10:20:12;;;;;;;51.42;26.75;;;;;;;-1.22;80.12;99704.44;1749759;82;22554;-32
2021/01/14 10:22:49;;;;;;;57.95;29.25;;;;;;;-1.10;79.96;99700.42;1749822;81;20967;-32
2021/01/14 10:25:18;;;;;;;58.55;26.55;;;;;;;-1.04;79.41;99697.98;1749787;82;21410;-33
2021/01/14 10:28:03;;;;;;;59.00;29.12;;;;;;;-1.04;79.29;99699.25;1749835;82;21039;-32
2021/01/14 10:30:32;;;;;;;57.07;28.73;;;;;;;-1.02;79.21;99693.77;1750149;82;20975;-32
2021/01/14 10:33:03;;;;;;;61.58;30.80;;;;;;;-1.03;79.24;99694.61;1722578;82;22257;-32
2021/01/14 10:35:33;;;;;;;68.15;32.63;;;;;;;-1.05;79.19;99695.00;1749822;82;21015;-32
2021/01/14 10:38:11;;;;;;;57.23;27.48;;;;;;;-1.08;79.30;99694.52;1749908;82;21490;-33
2021/01/14 10:40:47;;;;;;;55.45;29.12;;;;;;;-1.11;79.23;99688.55;1749318;82;21027;-32
2021/01/14 10:43:34;;;;;;;55.25;27.90;;;;;;;-1.21;79.33;99687.10;1747284;82;21002;-32
2021/01/14 10:46:01;;;;;;;56.20;29.75;;;;;;;-1.23;79.56;99688.77;1749810;82;21379;-33
2021/01/14 10:48:37;;;;;;;59.23;29.80;;;;;;;-1.25;79.64;99687.88;1749729;82;21150;-34
2021/01/14 10:51:05;;;;;;;;;;;;;;;-1.24;79.77;99682.41;1752501;82;21455;-33
2021/01/14 10:53:37;;;;;;;59.53;31.07;;;;;;;-1.19;79.72;99674.44;1749838;80;20189;-32
2021/01/14 10:56:10;;;;;;;63.10;30.35;;;;;;;-1.21;79.82;99677.38;1749842;82;20993;-33
2021/01/14 10:58:41;;;;;;;56.65;29.70;;;;;;;-1.19;79.99;99679.52;1749866;82;21215;-33
2021/01/14 11:01:19;;;;;;;61.42;29.95;;;;;;;-1.19;79.91;99679.09;1749675;82;21030;-33
2021/01/14 11:03:50;;;;;;;60.20;28.07;;;;;;;-1.23;79.96;99676.50;1749913;82;21529;-32
2021/01/14 11:06:32;;;;;;;52.88;27.27;;;;;;;-1.34;80.12;99673.34;1749776;82;21022;-32
2021/01/14 11:09:05;;;;;;;62.03;30.08;;;;;;;-1.42;80.30;99668.55;1749973;82;20995;-33
2021/01/14 11:11:35;;;;;;;64.85;31.12;;;;;;;-1.53;80.59;99670.02;1750034;82;21270;-37
2021/01/14 11:14:03;;;;;;;64.80;30.48;;;;;;;-1.68;80.91;99667.66;1749922;82;20947;-33
2021/01/14 11:16:31;;;;;;;62.85;30.75;;;;;;;-1.76;80.99;99670.47;1749918;82;21007;-32
2021/01/14 11:18:59;;;;;;;63.48;31.37;;;;;;;-1.86;81.48;99673.64;1749952;81;21054;-32
2021/01/14 11:21:32;;;;;;;65.60;31.40;;;;;;;-1.92;81.67;99670.55;1748404;81;21051;-32
2021/01/14 11:24:01;;;;;;;69.82;32.93;;;;;;;-1.98;81.95;99655.22;1735972;82;21210;-32
2021/01/14 11:26:28;;;;;;;67.03;31.75;;;;;;;-2.00;82.07;99660.68;1735897;82;21086;-32
2021/01/14 11:28:56;;;;;;;63.75;29.10;;;;;;;-2.09;82.61;99656.27;1735983;81;20996;-31
2021/01/14 11:31:26;;;;;;;74.60;33.05;;;;;;;-2.07;82.64;99660.56;1735913;82;20987;-32
2021/01/14 11:33:56;;;;;;;72.70;32.60;;;;;;;-2.06;82.74;99656.33;1736028;82;20976;-31
2021/01/14 11:36:25;;;;;;;82.72;33.20;;;;;;;-2.05;82.83;99660.18;1735857;81;21192;-35
2021/01/14 11:38:52;;;;;;;83.35;32.25;;;;;;;-2.00;82.88;99654.34;1735990;82;20944;-33
2021/01/14 11:41:22;;;;;;;93.25;33.63;;;;;;;-1.96;83.00;99654.84;1735895;82;20937;-33